createdAt,value
2023-05-01T00:01:14.870Z,5.15
2023-05-01T00:03:47.607Z,5.25
2023-05-01T00:06:20.682Z,5.82
2023-05-01T00:08:53.299Z,4.97
2023-05-01T00:11:26.318Z,6.10
2023-05-01T00:13:59.012Z,5.65
2023-05-01T00:16:32.032Z,5.97
2023-05-01T00:19:05.419Z,5.68
2023-05-01T00:21:38.665Z,5.50
2023-05-01T00:24:11.365Z,6.25
2023-05-01T00:26:44.421Z,6.10
2023-05-01T00:29:17.730Z,5.85
2023-05-01T00:31:50.906Z,5.40
2023-05-01T00:34:23.920Z,5.22
2023-05-01T00:36:57.054Z,4.72
2023-05-01T00:39:29.706Z,5.47
2023-05-01T00:42:02.772Z,5.18
2023-05-01T00:44:35.384Z,4.78
2023-05-01T00:47:08.356Z,4.93
2023-05-01T00:49:43.305Z,5.40
2023-05-01T00:52:16.794Z,5.70
2023-05-01T00:54:52.656Z,5.30
2023-05-01T00:57:25.937Z,4.22
2023-05-01T00:59:58.841Z,5.88
2023-05-01T01:02:33.177Z,4.30
2023-05-01T01:05:06.037Z,5.10
2023-05-01T01:07:39.096Z,5.78
2023-05-01T01:10:19.045Z,5.38
2023-05-01T01:12:55.349Z,4.35
2023-05-01T01:15:38.570Z,5.95
2023-05-01T01:18:15.794Z,5.32
2023-05-01T01:20:55.894Z,4.57
2023-05-01T01:23:37.229Z,6.05
2023-05-01T01:26:12.224Z,5.28
2023-05-01T01:29:02.962Z,4.85
2023-05-01T01:31:40.044Z,4.70
2023-05-01T01:34:13.204Z,3.67
2023-05-01T01:36:56.653Z,4.57
2023-05-01T01:39:37.432Z,4.20
2023-05-01T01:42:14.235Z,4.70
2023-05-01T01:44:53.231Z,5.00
2023-05-01T01:47:32.184Z,5.22
2023-05-01T01:50:07.293Z,4.40
2023-05-01T01:52:42.274Z,4.57
2023-05-01T01:55:16.232Z,3.67
2023-05-01T01:57:51.081Z,3.78
2023-05-01T02:00:25.209Z,3.97
2023-05-01T02:02:59.642Z,4.15
2023-05-01T02:05:33.656Z,3.33
2023-05-01T02:08:07.448Z,4.28
2023-05-01T02:10:42.022Z,4.47
2023-05-01T02:13:16.181Z,3.20
2023-05-01T02:15:49.493Z,3.95
2023-05-01T02:18:23.106Z,4.10
2023-05-01T02:20:57.617Z,3.58
2023-05-01T02:23:31.722Z,6.38
2023-05-01T02:26:07.780Z,4.57
2023-05-01T02:28:42.016Z,3.65
2023-05-01T02:31:15.963Z,5.68
2023-05-01T02:33:48.716Z,4.00
2023-05-01T02:36:21.844Z,4.63
2023-05-01T02:38:55.974Z,4.68
2023-05-01T02:41:30.452Z,5.03
2023-05-01T02:44:05.096Z,4.25
2023-05-01T02:46:45.536Z,4.63
2023-05-01T02:49:30.006Z,4.53
2023-05-01T02:52:06.123Z,4.75
2023-05-01T02:54:45.465Z,4.90
2023-05-01T02:57:24.605Z,4.97
2023-05-01T03:00:04.880Z,4.53
2023-05-01T03:02:39.172Z,5.70
2023-05-01T03:05:11.783Z,5.45
2023-05-01T03:07:45.542Z,5.05
2023-05-01T03:10:18.398Z,4.22
2023-05-01T03:12:51.358Z,5.75
2023-05-01T03:15:24.137Z,5.05
2023-05-01T03:17:57.200Z,7.28
2023-05-01T03:20:30.182Z,5.80
2023-05-01T03:23:03.739Z,5.63
2023-05-01T03:25:37.700Z,5.75
2023-05-01T03:28:11.275Z,5.47
2023-05-01T03:30:45.074Z,6.00
2023-05-01T03:33:18.337Z,5.57
2023-05-01T03:35:59.862Z,5.50
2023-05-01T03:38:33.428Z,5.45
2023-05-01T03:41:15.165Z,7.13
2023-05-01T03:44:06.637Z,5.68
2023-05-01T03:46:48.037Z,6.30
2023-05-01T03:49:27.111Z,7.40
2023-05-01T03:51:59.876Z,5.45
2023-05-01T03:54:33.703Z,5.28
2023-05-01T03:57:23.594Z,4.38
2023-05-01T03:59:57.030Z,5.13
2023-05-01T04:02:30.078Z,4.07
2023-05-01T04:05:03.080Z,4.82
2023-05-01T04:07:36.011Z,4.60
2023-05-01T04:10:10.337Z,4.05
2023-05-01T04:12:47.675Z,4.55
2023-05-01T04:15:22.925Z,4.57
2023-05-01T04:17:57.603Z,4.85
2023-05-01T04:20:30.716Z,4.45
2023-05-01T04:23:03.655Z,4.40
2023-05-01T04:25:37.176Z,4.95
2023-05-01T04:28:16.095Z,4.15
2023-05-01T04:30:49.221Z,4.90
2023-05-01T04:33:22.097Z,4.05
2023-05-01T04:35:55.687Z,5.40
2023-05-01T04:38:29.423Z,4.25
2023-05-01T04:41:03.782Z,4.55
2023-05-01T04:43:36.428Z,3.75
2023-05-01T04:46:10.024Z,3.58
2023-05-01T04:48:43.267Z,5.57
2023-05-01T04:51:16.415Z,5.18
2023-05-01T04:53:49.709Z,4.68
2023-05-01T04:56:27.671Z,4.55
2023-05-01T04:59:05.685Z,4.82
2023-05-01T05:01:39.408Z,4.53
2023-05-01T05:04:12.532Z,4.63
2023-05-01T05:06:45.851Z,4.65
2023-05-01T05:09:22.904Z,5.07
2023-05-01T05:11:56.159Z,5.03
2023-05-01T05:14:29.214Z,5.28
2023-05-01T05:17:02.429Z,5.25
2023-05-01T05:19:35.108Z,4.47
2023-05-01T05:22:08.211Z,4.00
2023-05-01T05:24:55.570Z,5.13
2023-05-01T05:27:29.492Z,4.57
2023-05-01T05:30:03.308Z,3.78
2023-05-01T05:32:36.882Z,5.47
2023-05-01T05:35:09.848Z,6.18
2023-05-01T05:37:45.961Z,5.03
2023-05-01T05:40:19.781Z,4.32
2023-05-01T05:43:00.199Z,4.88
2023-05-01T05:45:34.959Z,4.68
2023-05-01T05:48:08.244Z,5.00
2023-05-01T05:50:44.825Z,4.90
2023-05-01T05:53:19.130Z,3.78
2023-05-01T05:55:51.943Z,4.50
2023-05-01T05:58:25.112Z,5.30
2023-05-01T06:00:57.807Z,4.43
2023-05-01T06:03:31.112Z,5.72
2023-05-01T06:06:07.413Z,6.60
2023-05-01T06:08:40.452Z,7.68
2023-05-01T06:11:16.904Z,7.22
2023-05-01T06:13:50.075Z,7.07
2023-05-01T06:16:22.862Z,6.38
2023-05-01T06:18:55.871Z,5.70
2023-05-01T06:21:28.632Z,6.30
2023-05-01T06:24:01.759Z,6.72
2023-05-01T06:26:41.852Z,7.07
2023-05-01T06:29:14.817Z,6.32
2023-05-01T06:31:47.861Z,5.32
2023-05-01T06:34:20.972Z,5.97
2023-05-01T06:36:58.893Z,6.25
2023-05-01T06:39:32.487Z,6.85
2023-05-01T06:42:05.443Z,5.30
2023-05-01T06:44:44.961Z,5.65
2023-05-01T06:47:17.668Z,5.22
2023-05-01T06:49:50.771Z,5.75
2023-05-01T06:52:23.412Z,5.57
2023-05-01T06:54:56.401Z,4.85
2023-05-01T06:57:29.072Z,6.38
2023-05-01T07:00:02.122Z,5.65
2023-05-01T07:02:35.773Z,5.80
2023-05-01T07:05:08.992Z,4.95
2023-05-01T07:07:47.299Z,4.32
2023-05-01T07:10:23.685Z,5.00
2023-05-01T07:12:56.289Z,5.15
2023-05-01T07:15:29.259Z,4.32
2023-05-01T07:18:03.623Z,4.07
2023-05-01T07:20:36.725Z,3.75
2023-05-01T07:23:10.293Z,4.25
2023-05-01T07:25:45.537Z,4.63
2023-05-01T07:28:19.862Z,5.30
2023-05-01T07:30:53.387Z,4.18
2023-05-01T07:33:26.515Z,3.92
2023-05-01T07:35:59.507Z,2.88
2023-05-01T07:38:32.115Z,3.80
2023-05-01T07:41:05.239Z,3.85
2023-05-01T07:43:37.876Z,3.38
2023-05-01T07:46:11.794Z,3.65
2023-05-01T07:48:44.794Z,3.60
2023-05-01T07:51:18.871Z,3.35
2023-05-01T07:53:51.768Z,3.55
2023-05-01T07:56:24.779Z,5.57
2023-05-01T07:58:57.724Z,3.85
2023-05-01T08:01:30.753Z,3.92
2023-05-01T08:04:03.464Z,2.60
2023-05-01T08:06:36.754Z,3.13
2023-05-01T08:09:09.808Z,3.00
2023-05-01T08:11:42.963Z,3.25
2023-05-01T08:14:18.409Z,3.38
2023-05-01T08:16:55.635Z,3.78
2023-05-01T08:19:28.463Z,4.20
2023-05-01T08:22:01.655Z,2.97
2023-05-01T08:24:34.287Z,3.55
2023-05-01T08:27:10.221Z,3.33
2023-05-01T08:29:42.908Z,3.40
2023-05-01T08:32:16.238Z,3.15
2023-05-01T08:34:48.931Z,2.78
2023-05-01T08:37:22.185Z,3.95
2023-05-01T08:39:54.956Z,3.20
2023-05-01T08:42:30.466Z,3.92
2023-05-01T08:45:14.094Z,3.80
2023-05-01T08:47:48.509Z,4.45
2023-05-01T08:50:23.072Z,3.08
2023-05-01T08:52:56.919Z,2.78
2023-05-01T08:55:30.735Z,3.53
2023-05-01T08:58:04.720Z,2.55
2023-05-01T09:00:37.609Z,2.80
2023-05-01T09:03:12.328Z,3.17
2023-05-01T09:05:45.840Z,3.17
2023-05-01T09:08:18.845Z,3.15
2023-05-01T09:10:52.654Z,4.03
2023-05-01T09:13:26.146Z,2.92
2023-05-01T09:15:58.920Z,2.63
2023-05-01T09:18:31.844Z,3.38
2023-05-01T09:21:05.144Z,2.05
2023-05-01T09:23:38.295Z,3.30
2023-05-01T09:26:11.292Z,2.72
2023-05-01T09:28:47.286Z,2.63
2023-05-01T09:31:30.406Z,3.38
2023-05-01T09:34:04.284Z,3.45
2023-05-01T09:36:38.417Z,3.15
2023-05-01T09:39:22.874Z,2.42
2023-05-01T09:41:56.269Z,3.38
2023-05-01T09:44:29.272Z,3.33
2023-05-01T09:47:02.571Z,2.75
2023-05-01T09:49:45.460Z,2.78
2023-05-01T09:52:18.536Z,2.90
2023-05-01T09:54:51.942Z,2.65
2023-05-01T09:57:38.704Z,2.20
2023-05-01T10:00:12.866Z,3.05
2023-05-01T10:02:47.133Z,2.72
2023-05-01T10:05:20.568Z,3.20
2023-05-01T10:08:00.351Z,3.28
2023-05-01T10:10:33.403Z,2.70
2023-05-01T10:13:15.728Z,2.53
2023-05-01T10:15:49.632Z,3.38
2023-05-01T10:18:23.916Z,1.95
2023-05-01T10:20:57.216Z,3.33
2023-05-01T10:23:30.214Z,3.85
2023-05-01T10:26:05.273Z,3.53
2023-05-01T10:28:38.587Z,2.90
2023-05-01T10:31:13.292Z,2.92
2023-05-01T10:33:46.667Z,3.30
2023-05-01T10:36:23.018Z,3.67
2023-05-01T10:38:58.308Z,3.30
2023-05-01T10:41:50.437Z,2.60
2023-05-01T10:46:56.518Z,3.28
2023-05-01T10:49:49.169Z,2.83
2023-05-01T10:52:22.123Z,2.83
2023-05-01T10:54:55.043Z,2.47
2023-05-01T10:57:42.555Z,2.30
2023-05-01T11:00:15.555Z,2.22
2023-05-01T11:02:48.504Z,2.40
2023-05-01T11:05:41.395Z,3.05
2023-05-01T11:08:50.001Z,2.10
2023-05-01T11:11:23.273Z,3.28
2023-05-01T11:14:00.246Z,2.78
2023-05-01T11:16:39.738Z,1.50
2023-05-01T11:19:22.018Z,1.60
2023-05-01T11:21:55.300Z,2.05
2023-05-01T11:24:32.232Z,1.80
2023-05-01T11:27:05.469Z,1.98
2023-05-01T11:29:38.592Z,2.72
2023-05-01T11:32:15.985Z,2.20
2023-05-01T11:34:49.998Z,2.13
2023-05-01T11:37:41.985Z,1.75
2023-05-01T11:40:41.464Z,1.13
2023-05-01T11:43:14.119Z,1.23
2023-05-01T11:45:52.457Z,1.80
2023-05-01T11:48:25.120Z,1.08
2023-05-01T11:50:58.288Z,1.85
2023-05-01T11:53:31.378Z,1.85
2023-05-01T11:56:08.799Z,1.65
2023-05-01T11:58:49.524Z,1.20
2023-05-01T12:01:37.644Z,1.38
2023-05-01T12:04:11.049Z,1.50
2023-05-01T12:06:46.423Z,1.63
2023-05-01T12:09:20.725Z,1.50
2023-05-01T12:11:54.030Z,2.00
2023-05-01T12:14:27.210Z,1.45
2023-05-01T12:17:00.538Z,1.70
2023-05-01T12:19:34.956Z,1.40
2023-05-01T12:22:08.175Z,1.48
2023-05-01T12:24:49.352Z,1.85
2023-05-01T12:27:22.004Z,1.42
2023-05-01T12:29:55.468Z,1.60
2023-05-01T12:32:32.243Z,1.67
2023-05-01T12:35:17.346Z,1.30
2023-05-01T12:37:50.086Z,1.33
2023-05-01T12:40:23.390Z,1.98
2023-05-01T12:42:58.642Z,1.38
2023-05-01T12:45:39.015Z,1.73
2023-05-01T12:48:16.691Z,1.45
2023-05-01T12:50:56.016Z,1.50
2023-05-01T12:53:29.275Z,1.90
2023-05-01T12:56:04.718Z,1.80
2023-05-01T12:58:37.846Z,1.52
2023-05-01T13:01:11.112Z,2.25
2023-05-01T13:03:44.392Z,1.65
2023-05-01T13:06:17.995Z,2.13
2023-05-01T13:08:50.807Z,1.95
2023-05-01T13:11:24.322Z,1.85
2023-05-01T13:14:08.159Z,2.05
2023-05-01T13:16:45.966Z,1.75
2023-05-01T13:19:27.067Z,1.48
2023-05-01T13:22:00.176Z,1.77
2023-05-01T13:24:42.633Z,1.95
2023-05-01T13:27:15.682Z,1.70
2023-05-01T13:29:58.607Z,2.42
2023-05-01T13:32:32.338Z,2.35
2023-05-01T13:35:05.760Z,1.98
2023-05-01T13:37:40.350Z,1.40
2023-05-01T13:40:13.224Z,2.05
2023-05-01T13:42:46.674Z,1.83
2023-05-01T13:45:21.261Z,1.95
2023-05-01T13:47:55.723Z,2.35
2023-05-01T13:50:28.688Z,1.88
2023-05-01T13:53:01.828Z,1.73
2023-05-01T13:55:34.474Z,2.10
2023-05-01T13:58:07.776Z,2.20
2023-05-01T14:00:40.538Z,1.73
2023-05-01T14:03:16.281Z,2.15
2023-05-01T14:05:49.083Z,1.88
2023-05-01T14:08:27.308Z,2.15
2023-05-01T14:11:00.001Z,2.00
2023-05-01T14:13:33.862Z,2.50
2023-05-01T14:16:13.600Z,2.47
2023-05-01T14:18:47.768Z,1.98
2023-05-01T14:21:20.761Z,1.83
2023-05-01T14:23:53.958Z,2.13
2023-05-01T14:26:26.735Z,1.95
2023-05-01T14:28:59.804Z,2.65
2023-05-01T14:31:32.543Z,2.03
2023-05-01T14:34:07.080Z,2.45
2023-05-01T14:36:39.692Z,1.80
2023-05-01T14:39:12.979Z,2.40
2023-05-01T14:41:49.059Z,2.22
2023-05-01T14:44:24.593Z,2.38
2023-05-01T14:46:59.043Z,1.92
2023-05-01T14:49:32.274Z,1.80
2023-05-01T14:52:05.017Z,1.67
2023-05-01T14:54:45.123Z,2.55
2023-05-01T14:57:17.840Z,2.15
2023-05-01T14:59:51.120Z,1.88
2023-05-01T15:02:24.077Z,2.00
2023-05-01T15:04:57.490Z,1.70
2023-05-01T15:07:30.335Z,2.47
2023-05-01T15:10:03.646Z,1.73
2023-05-01T15:12:36.676Z,1.85
2023-05-01T15:15:10.044Z,1.88
2023-05-01T15:17:42.676Z,2.22
2023-05-01T15:20:15.749Z,2.80
2023-05-01T15:22:48.371Z,1.95
2023-05-01T15:25:21.600Z,2.20
2023-05-01T15:27:54.322Z,1.90
2023-05-01T15:30:27.456Z,1.95
2023-05-01T15:33:01.034Z,1.70
2023-05-01T15:35:34.546Z,1.90
2023-05-01T15:38:07.185Z,2.10
2023-05-01T15:40:40.439Z,2.40
2023-05-01T15:43:13.062Z,2.10
2023-05-01T15:45:46.147Z,2.13
2023-05-01T15:48:18.848Z,2.72
2023-05-01T15:50:51.962Z,1.95
2023-05-01T15:53:24.579Z,2.53
2023-05-01T15:55:58.613Z,2.40
2023-05-01T15:58:31.298Z,1.98
2023-05-01T16:01:04.297Z,2.13
2023-05-01T16:03:46.030Z,2.17
2023-05-01T16:06:19.383Z,2.08
2023-05-01T16:08:52.045Z,2.20
2023-05-01T16:11:25.106Z,3.20
2023-05-01T16:13:57.855Z,2.45
2023-05-01T16:16:30.924Z,2.08
2023-05-01T16:19:03.537Z,2.75
2023-05-01T16:21:37.056Z,2.05
2023-05-01T16:24:10.294Z,1.90
2023-05-01T16:26:44.238Z,2.33
2023-05-01T16:29:16.929Z,2.13
2023-05-01T16:31:50.227Z,1.77
2023-05-01T16:34:24.830Z,2.10
2023-05-01T16:36:57.837Z,1.80
2023-05-01T16:39:30.619Z,1.95
2023-05-01T16:42:03.714Z,1.90
2023-05-01T16:44:37.128Z,2.38
2023-05-01T16:50:08.673Z,2.08
2023-05-01T16:52:41.662Z,2.38
2023-05-01T16:55:14.435Z,2.50
2023-05-01T16:57:47.602Z,2.85
2023-05-01T17:00:20.781Z,3.15
2023-05-01T17:02:56.062Z,2.20
2023-05-01T17:05:30.348Z,2.20
2023-05-01T17:08:03.743Z,2.50
2023-05-01T17:10:38.692Z,2.30
2023-05-01T17:13:11.896Z,2.47
2023-05-01T17:15:44.521Z,3.53
2023-05-01T17:18:17.771Z,4.47
2023-05-01T17:20:50.919Z,3.95
2023-05-01T17:23:24.155Z,3.22
2023-05-01T17:25:57.069Z,2.70
2023-05-01T17:28:30.136Z,2.60
2023-05-01T17:31:09.409Z,2.78
2023-05-01T17:33:47.570Z,2.60
2023-05-01T17:36:21.054Z,2.60
2023-05-01T17:38:55.044Z,2.85
2023-05-01T17:41:27.798Z,3.22
2023-05-01T17:44:00.859Z,1.98
2023-05-01T17:46:33.948Z,3.35
2023-05-01T17:49:07.869Z,3.42
2023-05-01T17:51:40.585Z,2.92
2023-05-01T17:54:22.577Z,3.58
2023-05-01T17:56:55.265Z,3.10
2023-05-01T17:59:30.954Z,3.75
2023-05-01T18:02:04.298Z,3.05
2023-05-01T18:04:38.766Z,3.58
2023-05-01T18:07:11.539Z,3.58
2023-05-01T18:09:44.553Z,3.42
2023-05-01T18:12:17.220Z,4.32
2023-05-01T18:14:50.596Z,3.75
2023-05-01T18:17:23.545Z,3.50
2023-05-01T18:19:56.852Z,4.05
2023-05-01T18:22:30.492Z,3.47
2023-05-01T18:25:03.658Z,2.95
2023-05-01T18:27:38.303Z,2.90
2023-05-01T18:30:11.519Z,3.08
2023-05-01T18:32:47.407Z,3.40
2023-05-01T18:35:21.088Z,2.72
2023-05-01T18:37:54.272Z,3.40
2023-05-01T18:40:27.694Z,3.42
2023-05-01T18:43:00.322Z,4.75
2023-05-01T18:45:33.552Z,4.07
2023-05-01T18:48:06.337Z,3.75
2023-05-01T18:50:39.439Z,4.03
2023-05-01T18:53:12.095Z,3.88
2023-05-01T18:55:45.128Z,3.85
2023-05-01T18:58:17.811Z,4.20
2023-05-01T19:00:50.909Z,4.28
2023-05-01T19:03:23.584Z,4.55
2023-05-01T19:05:56.591Z,3.78
2023-05-01T19:08:29.174Z,3.65
2023-05-01T19:11:02.328Z,3.28
2023-05-01T19:13:35.053Z,3.08
2023-05-01T19:16:08.128Z,3.50
2023-05-01T19:18:40.901Z,3.10
2023-05-01T19:21:14.812Z,4.18
2023-05-01T19:23:48.538Z,3.38
2023-05-01T19:26:21.606Z,3.30
2023-05-01T19:28:54.249Z,3.58
2023-05-01T19:31:27.354Z,3.38
2023-05-01T19:33:59.931Z,2.95
2023-05-01T19:36:33.227Z,3.92
2023-05-01T19:39:06.031Z,2.55
2023-05-01T19:41:39.046Z,3.47
2023-05-01T19:44:11.902Z,2.83
2023-05-01T19:46:45.049Z,2.67
2023-05-01T19:49:17.817Z,3.33
2023-05-01T19:51:51.072Z,2.97
2023-05-01T19:54:26.491Z,3.38
2023-05-01T19:56:59.497Z,3.70
2023-05-01T19:59:32.178Z,2.65
2023-05-01T20:02:06.075Z,3.35
2023-05-01T20:04:38.826Z,3.65
2023-05-01T20:07:11.863Z,2.97
2023-05-01T20:09:44.679Z,2.67
2023-05-01T20:12:17.784Z,3.33
2023-05-01T20:14:50.511Z,3.28
2023-05-01T20:17:23.534Z,2.67
2023-05-01T20:19:56.672Z,3.00
2023-05-01T20:22:30.234Z,2.58
2023-05-01T20:25:02.896Z,3.33
2023-05-01T20:27:36.061Z,2.85
2023-05-01T20:30:11.081Z,3.03
2023-05-01T20:32:44.656Z,3.08
2023-05-01T20:35:17.512Z,3.40
2023-05-01T20:37:50.493Z,3.17
2023-05-01T20:40:23.158Z,3.22
2023-05-01T20:42:56.534Z,2.63
2023-05-01T20:45:31.932Z,2.75
2023-05-01T20:48:05.136Z,2.58
2023-05-01T20:50:37.800Z,3.28
2023-05-01T20:53:11.071Z,2.58
2023-05-01T20:55:43.750Z,3.22
2023-05-01T20:58:16.813Z,3.00
2023-05-01T21:00:49.538Z,2.97
2023-05-01T21:03:22.827Z,3.40
2023-05-01T21:05:59.307Z,3.92
2023-05-01T21:08:33.667Z,3.45
2023-05-01T21:11:06.603Z,3.20
2023-05-01T21:13:39.555Z,3.25
2023-05-01T21:16:16.176Z,2.80
2023-05-01T21:18:49.186Z,2.85
2023-05-01T21:21:21.829Z,2.85
2023-05-01T21:23:54.989Z,2.60
2023-05-01T21:26:29.119Z,3.95
2023-05-01T21:29:02.122Z,3.00
2023-05-01T21:31:36.453Z,3.25
2023-05-01T21:34:09.524Z,3.58
2023-05-01T21:36:45.505Z,3.20
2023-05-01T21:39:19.090Z,3.30
2023-05-01T21:41:51.839Z,2.92
2023-05-01T21:44:28.686Z,2.67
2023-05-01T21:47:01.914Z,3.00
2023-05-01T21:49:35.106Z,3.83
2023-05-01T21:52:11.819Z,3.63
2023-05-01T21:54:44.886Z,2.92
2023-05-01T21:57:17.627Z,3.33
2023-05-01T21:59:51.017Z,3.95
2023-05-01T22:02:23.723Z,3.28
2023-05-01T22:04:56.854Z,3.33
2023-05-01T22:07:29.530Z,2.72
2023-05-01T22:10:02.573Z,2.67
2023-05-01T22:12:35.411Z,3.70
2023-05-01T22:15:09.279Z,3.20
2023-05-01T22:17:42.178Z,3.03
2023-05-01T22:20:15.285Z,3.38
2023-05-01T22:22:47.978Z,2.53
2023-05-01T22:25:21.132Z,3.55
2023-05-01T22:27:53.723Z,3.72
2023-05-01T22:30:26.814Z,3.67
2023-05-01T22:32:59.555Z,4.00
2023-05-01T22:35:32.812Z,3.40
2023-05-01T22:38:05.516Z,4.32
2023-05-01T22:40:38.630Z,3.83
2023-05-01T22:43:11.233Z,3.70
2023-05-01T22:45:44.356Z,3.83
2023-05-01T22:48:17.074Z,4.13
2023-05-01T22:50:50.648Z,3.90
2023-05-01T22:53:23.265Z,3.97
2023-05-01T22:55:56.386Z,3.47
2023-05-01T22:58:29.086Z,4.32
2023-05-01T23:01:02.274Z,3.63
2023-05-01T23:03:37.998Z,3.88
2023-05-01T23:06:11.944Z,4.10
2023-05-01T23:08:44.583Z,3.80
2023-05-01T23:11:19.333Z,4.45
2023-05-01T23:13:51.948Z,4.68
2023-05-01T23:16:25.298Z,3.78
2023-05-01T23:18:58.082Z,3.72
2023-05-01T23:21:31.609Z,4.20
2023-05-01T23:24:04.240Z,4.03
2023-05-01T23:26:37.355Z,4.57
2023-05-01T23:29:10.231Z,4.10
2023-05-01T23:31:44.632Z,3.83
2023-05-01T23:34:17.919Z,5.38
2023-05-01T23:36:52.241Z,4.28
2023-05-01T23:39:25.297Z,6.18
2023-05-01T23:41:58.969Z,3.80
2023-05-01T23:44:32.810Z,4.88
2023-05-01T23:47:06.311Z,4.28
2023-05-01T23:49:39.050Z,4.38
2023-05-01T23:52:13.025Z,5.03
2023-05-01T23:54:45.858Z,4.57
2023-05-01T23:57:19.200Z,5.45
2023-05-01T23:59:51.866Z,5.50
